KAEX/AEX METAR and TAF weather

Enter ICAO airport designator
Station Type Date Time Source
KAEX METAR 2022/08/16 19:53 UTC NOAA

KAEX 161953Z 27008KT 10SM CLR 36/21 A2992 RMK AO2 SLP133 T03610206


Station Type Date Time Source
KAEX Decoded METAR 2022/08/16 19:53 UTC NOAA

ALEXANDRIA INTERNATIONAL AIRPORT, LA, United States (KAEX) 31-33N 092-56W 27M
Aug 16, 2022 - 03:53 PM EDT / 2022.08.16 1953 UTC
Wind: from the W (270 degrees) at 9 MPH (8 KT):0
Visibility: 10 mile(s):0
Sky conditions: clear
Temperature: 97.0 F (36.1 C)
Heat index: 102.9 F (39.4 C):1
Dew Point: 69.1 F (20.6 C)
Relative Humidity: 40%
Pressure (altimeter): 29.92 in. Hg (1013 hPa)
ob: KAEX 161953Z 27008KT 10SM CLR 36/21 A2992 RMK AO2 SLP133 T03610206
cycle: 20

Station Type Date Time Source
KAEX TAF 2022/08/16 18:22 UTC NOAA

TAF KAEX 161720Z 1618/1718 VRB06KT P6SM FEW035
FM162000 19007KT P6SM FEW040 SCT250
FM170000 17004KT P6SM VCTS FEW040CB BKN250
FM170600 VRB03KT 6SM BR BKN250
FM171500 26006KT P6SM SCT250

Example: see airport list